^^
544WX Chesapeake-Weather Station Historical Data
 
Daily Summary for November 27, 2020 Units:  English    Metric   Both
Daily Weekly Monthly Yearly Custom
  Current: High: Low: Average:
Temperature: 59.4 °F 59.9 °F 55.5 °F 57.3 °F
Dew Point: 57.7 °F 58.5 °F 54.7 °F 56.4 °F
Humidity: 94% 98% 94% 97%
Wind Speed: 0.9mph 2.8mph 0mph 0.4mph
Wind Gust: 4mph 6mph - -
WindSW - - South
Pressure: 29.98 in 30.06 in 29.98 in -
Precipitation: 0.00 in      
Historical Graphs
 
 
Tabular Data for November 27, 2020
Time Temperature Dew Point Pressure Wind Wind Speed Wind Gust Humidity Rainfall Rate (Hourly) solar Conditions
00:04 58.2 °F 56.8 °F 30.03 in Calm     95% 0.00 in 0 W/m2
00:09 58.1 °F 56.7 °F 30.03 in Calm     95% 0.00 in 0 W/m2
00:14 57.9 °F 56.5 °F 30.03 in Calm     95% 0.00 in 0 W/m2
00:19 57.8 °F 56.4 °F 30.03 in Calm     95% 0.00 in 0 W/m2
00:24 57.6 °F 56.2 °F 30.03 in Calm     95% 0.00 in 0 W/m2
00:29 57.5 °F 56.1 °F 30.03 in Calm     95% 0.00 in 0 W/m2
00:34 57.3 °F 55.9 °F 30.03 in Calm     95% 0.00 in 0 W/m2
00:39 57.2 °F 55.8 °F 30.03 in Calm     95% 0.00 in 0 W/m2
00:44 57.1 °F 55.7 °F 30.03 in Calm     95% 0.00 in 0 W/m2
00:49 56.9 °F 55.5 °F 30.03 in Calm     95% 0.00 in 0 W/m2
00:54 56.8 °F 55.4 °F 30.03 in Calm     95% 0.00 in 0 W/m2
00:59 56.7 °F 55.3 °F 30.03 in Calm     95% 0.00 in 0 W/m2
01:04 56.6 °F 55.2 °F 30.03 in Calm     95% 0.00 in 0 W/m2
01:09 56.5 °F 55.4 °F 30.03 in Calm     96% 0.00 in 0 W/m2
01:14 56.4 °F 55 °F 30.03 in Calm     95.2% 0.00 in 0 W/m2
01:19 56.3 °F 55 °F 30.03 in Calm     95% 0.00 in 0 W/m2
01:24 56.3 °F 55.2 °F 30.02 in Calm     96% 0.00 in 0 W/m2
01:29 56.2 °F 55.1 °F 30.02 in Calm     96% 0.00 in 0 W/m2
01:34 56.1 °F 55 °F 30.02 in Calm     96% 0.00 in 0 W/m2
01:39 56 °F 54.9 °F 30.03 in Calm     96% 0.00 in 0 W/m2
01:44 56 °F 54.9 °F 30.03 in Calm     96% 0.00 in 0 W/m2
01:49 56 °F 54.9 °F 30.03 in Calm     96% 0.00 in 0 W/m2
01:54 55.9 °F 54.8 °F 30.03 in Calm     96% 0.00 in 0 W/m2
01:59 55.9 °F 54.8 °F 30.03 in Calm     96% 0.00 in 0 W/m2
02:04 55.9 °F 54.8 °F 30.03 in Calm     96% 0.00 in 0 W/m2
02:09 55.9 °F 54.8 °F 30.03 in Calm     96% 0.00 in 0 W/m2
02:14 55.9 °F 54.8 °F 30.03 in Calm     96% 0.00 in 0 W/m2
02:19 56 °F 54.9 °F 30.03 in Calm     96% 0.00 in 0 W/m2
02:24 56 °F 54.9 °F 30.03 in Calm     96% 0.00 in 0 W/m2
02:29 56.1 °F 55 °F 30.03 in Calm     96% 0.00 in 0 W/m2
02:34 56.1 °F 55 °F 30.03 in Calm     96% 0.00 in 0 W/m2
02:39 56.2 °F 55.1 °F 30.03 in Calm     96% 0.00 in 0 W/m2
02:44 56.2 °F 55.1 °F 30.03 in Calm     96% 0.00 in 0 W/m2
02:49 56.3 °F 55.2 °F 30.03 in Calm     96% 0.00 in 0 W/m2
02:54 56.4 °F 55.3 °F 30.03 in Calm     96% 0.00 in 0 W/m2
02:59 56.4 °F 55.3 °F 30.03 in Calm     96% 0.00 in 0 W/m2
03:04 56.5 °F 55.4 °F 30.03 in Calm     96% 0.00 in 0 W/m2
03:09 56.6 °F 55.5 °F 30.03 in Calm     96% 0.00 in 0 W/m2
03:14 56.7 °F 55.6 °F 30.03 in Calm     96.1% 0.00 in 0 W/m2
03:19 56.9 °F 56.1 °F 30.03 in Calm     97% 0.00 in 0 W/m2
03:24 57 °F 56.2 °F 30.03 in Calm     97% 0.00 in 0 W/m2
03:29 57.1 °F 56.3 °F 30.03 in Calm     97% 0.00 in 0 W/m2
03:34 57.1 °F 56.3 °F 30.03 in Calm     97% 0.00 in 0 W/m2
03:39 57.1 °F 56.3 °F 30.03 in Calm     97% 0.00 in 0 W/m2
03:44 57.2 °F 56.4 °F 30.03 in Calm     97% 0.00 in 0 W/m2
03:49 57.2 °F 56.4 °F 30.02 in Calm     97% 0.00 in 0 W/m2
03:54 57.3 °F 56.5 °F 30.02 in Calm     97% 0.00 in 0 W/m2
03:59 57.3 °F 56.5 °F 30.02 in Calm     97% 0.00 in 0 W/m2
04:04 57.3 °F 56.5 °F 30.02 in Calm     97% 0.00 in 0 W/m2
04:09 57.3 °F 56.5 °F 30.02 in Calm     97% 0.00 in 0 W/m2
04:14 57.4 °F 56.6 °F 30.02 in Calm     97% 0.00 in 0 W/m2
04:19 57.4 °F 56.6 °F 30.02 in Calm     97% 0.00 in 0 W/m2
04:24 57.4 °F 56.6 °F 30.01 in Calm     97% 0.00 in 0 W/m2
04:29 57.5 °F 56.7 °F 30.02 in Calm     97% 0.00 in 0 W/m2
04:34 57.5 °F 56.7 °F 30.02 in Calm     97% 0.00 in 0 W/m2
04:39 57.5 °F 56.7 °F 30.02 in Calm     97% 0.00 in 0 W/m2
04:44 57.6 °F 56.8 °F 30.02 in Calm     97% 0.00 in 0 W/m2
04:49 57.8 °F 57 °F 30.02 in NNW 0.7 mph 1.7 mph 97% 0.00 in 0 W/m2
04:54 58.1 °F 57.3 °F 30.02 in NNW 0.7 mph 2 mph 97% 0.00 in 0 W/m2
04:59 58.2 °F 57.4 °F 30.02 in Calm   1 mph 97% 0.00 in 0 W/m2
05:04 58.4 °F 57.6 °F 30.03 in Calm     97% 0.00 in 0 W/m2
05:09 58.5 °F 57.7 °F 30.03 in Calm     97% 0.00 in 0 W/m2
05:14 58.5 °F 57.7 °F 30.03 in NNW 0.2 mph 1 mph 97% 0.00 in 0 W/m2
05:19 58.6 °F 57.8 °F 30.03 in NNW 0.3 mph 1 mph 97% 0.00 in 0 W/m2
05:24 58.6 °F 57.8 °F 30.02 in Calm   1 mph 97% 0.00 in 0 W/m2
05:29 58.5 °F 57.7 °F 30.02 in Calm     97% 0.00 in 0 W/m2
05:34 58.5 °F 57.7 °F 30.03 in Calm     97% 0.00 in 0 W/m2
05:39 58.4 °F 57.6 °F 30.03 in NNW 0.5 mph 0.2 mph 97% 0.00 in 0 W/m2
05:44 58.3 °F 57.5 °F 30.03 in Calm   1 mph 97% 0.00 in 0 W/m2
05:49 58.2 °F 57.4 °F 30.03 in Calm     97% 0.00 in 0 W/m2
05:54 58 °F 57.2 °F 30.04 in Calm     97% 0.00 in 0 W/m2
05:59 57.7 °F 56.9 °F 30.04 in NNW 0.2 mph   97% 0.00 in 0 W/m2
06:04 57.5 °F 56.7 °F 30.04 in Calm   1 mph 97% 0.00 in 0 W/m2
06:09 57.5 °F 56.7 °F 30.04 in Calm     97% 0.00 in 0 W/m2
06:14 57.4 °F 56.6 °F 30.04 in Calm     97% 0.00 in 0 W/m2
06:19 57.3 °F 56.5 °F 30.05 in Calm     97% 0.00 in 0 W/m2
06:24 57.2 °F 56.4 °F 30.05 in Calm     97% 0.00 in 0 W/m2
06:29 57.1 °F 56.3 °F 30.05 in Calm     97% 0.00 in 0 W/m2
06:34 57 °F 56.2 °F 30.05 in Calm     97% 0.00 in 0 W/m2
06:39 56.8 °F 56 °F 30.05 in Calm     97% 0.00 in 0 W/m2
06:44 56.6 °F 55.8 °F 30.05 in Calm     97% 0.00 in 0 W/m2
06:49 56.4 °F 55.6 °F 30.05 in Calm     97% 0.00 in 0 W/m2
06:54 56.2 °F 55.4 °F 30.05 in Calm     97% 0.00 in 0 W/m2
06:59 56 °F 55.2 °F 30.05 in Calm     97% 0.00 in 0 W/m2
07:04 55.8 °F 55 °F 30.05 in Calm     97% 0.00 in 5 W/m2
07:09 55.7 °F 54.9 °F 30.05 in Calm     97% 0.00 in 7 W/m2
07:14 55.5 °F 54.7 °F 30.05 in NNW 0.3 mph 0.2 mph 97% 0.00 in 9 W/m2
07:19 55.5 °F 54.7 °F 30.06 in Calm   1 mph 97% 0.00 in 12 W/m2
07:24 55.5 °F 54.7 °F 30.06 in Calm     97% 0.00 in 16 W/m2
07:29 55.6 °F 54.8 °F 30.06 in Calm     97% 0.00 in 19 W/m2
07:34 55.7 °F 54.9 °F 30.06 in Calm     97% 0.00 in 25 W/m2
07:39 55.7 °F 54.9 °F 30.06 in Calm     97% 0.00 in 28 W/m2
07:44 55.8 °F 55 °F 30.06 in NNW 0.3 mph 0.1 mph 97% 0.00 in 28 W/m2
07:49 55.9 °F 55.1 °F 30.05 in Calm   1 mph 97% 0.00 in 37 W/m2
07:54 55.9 °F 55.1 °F 30.05 in North 1.2 mph 1.9 mph 97% 0.00 in 39 W/m2
07:59 55.9 °F 55.1 °F 30.05 in North 0.7 mph 3 mph 97% 0.00 in 42 W/m2
08:04 56 °F 55.2 °F 30.05 in North 0.6 mph 1 mph 97% 0.00 in 44 W/m2
08:09 56 °F 55.2 °F 30.05 in Calm   1 mph 97% 0.00 in 51 W/m2
08:14 56 °F 55.2 °F 30.06 in Calm     97% 0.00 in 51 W/m2
08:19 56.1 °F 55.3 °F 30.06 in Calm     97% 0.00 in 58 W/m2
08:24 56 °F 55.2 °F 30.06 in Calm     97% 0.00 in 65 W/m2
08:29 56.1 °F 55.3 °F 30.06 in Calm     97% 0.00 in 69 W/m2
08:34 56.1 °F 55.3 °F 30.05 in North 1.4 mph 2 mph 97% 0.00 in 69 W/m2
08:39 56.2 °F 55.4 °F 30.05 in North 1.2 mph 2 mph 97% 0.00 in 76 W/m2
08:44 56.2 °F 55.4 °F 30.05 in North 0.5 mph 2 mph 97% 0.00 in 95 W/m2
08:49 56.2 °F 55.4 °F 30.05 in North 0.9 mph 1 mph 97% 0.00 in 95 W/m2
08:54 56.3 °F 55.5 °F 30.05 in North 1.7 mph 2 mph 97% 0.00 in 93 W/m2
08:59 56.2 °F 55.4 °F 30.06 in Calm   2 mph 97% 0.00 in 90 W/m2
09:04 56.2 °F 55.4 °F 30.06 in North 0.2 mph 1 mph 97% 0.00 in 98 W/m2
09:09 56.2 °F 55.4 °F 30.05 in Calm     97% 0.00 in 97 W/m2
09:14 56.3 °F 55.5 °F 30.05 in North 0.3 mph 0.1 mph 97% 0.00 in 95 W/m2
09:19 56.3 °F 55.5 °F 30.05 in North 0.3 mph 1 mph 97% 0.00 in 100 W/m2
09:24 56.3 °F 55.6 °F 30.05 in North 0.5 mph 1 mph 97.4% 0.00 in 105 W/m2
09:29 56.3 °F 55.7 °F 30.05 in North 1 mph 1 mph 98% 0.00 in 114 W/m2
09:34 56.3 °F 55.6 °F 30.05 in North 1.4 mph 1.1 mph 97.4% 0.00 in 116 W/m2
09:39 56.2 °F 55.4 °F 30.05 in North 1.8 mph 2.5 mph 97% 0.00 in 125 W/m2
09:44 56.2 °F 55.4 °F 30.05 in North 0.2 mph 4 mph 97% 0.00 in 127 W/m2
09:49 56.2 °F 55.4 °F 30.05 in North 1.6 mph 2 mph 97% 0.00 in 121 W/m2
09:54 56.2 °F 55.4 °F 30.05 in Calm   3 mph 97% 0.00 in 125 W/m2
09:59 56.3 °F 55.5 °F 30.06 in Calm     97% 0.00 in 125 W/m2
10:04 56.5 °F 55.8 °F 30.06 in Calm     97.5% 0.00 in 137 W/m2
10:09 56.8 °F 56.2 °F 30.05 in North 0.3 mph 0.4 mph 98% 0.00 in 172 W/m2
10:14 56.8 °F 56.2 °F 30.05 in North 0.6 mph 1 mph 98% 0.00 in 167 W/m2
10:19 56.8 °F 56.2 °F 30.05 in North 1.1 mph 2 mph 98% 0.00 in 144 W/m2
10:24 56.8 °F 56.1 °F 30.05 in Calm   3 mph 97.7% 0.00 in 139 W/m2
10:29 56.9 °F 56.3 °F 30.05 in Calm     97.9% 0.00 in 121 W/m2
10:34 56.9 °F 56.3 °F 30.05 in Calm     98% 0.00 in 132 W/m2
10:39 57 °F 56.4 °F 30.05 in NE 0.3 mph 0.1 mph 98% 0.00 in 137 W/m2
10:44 57 °F 56.4 °F 30.05 in NE 0.2 mph 1 mph 98% 0.00 in 160 W/m2
10:49 57 °F 56.4 °F 30.05 in NE 0.3 mph 0.2 mph 98% 0.00 in 158 W/m2
10:54 57 °F 56.4 °F 30.05 in NE 0.7 mph 1 mph 98% 0.00 in 151 W/m2
10:59 57.2 °F 56.6 °F 30.04 in NE 0.3 mph 1 mph 98% 0.00 in 158 W/m2
11:04 57.2 °F 56.6 °F 30.04 in Calm   1 mph 98% 0.00 in 171 W/m2
11:09 57.5 °F 56.9 °F 30.04 in Calm     98% 0.00 in 176 W/m2
11:14 57.6 °F 57 °F 30.04 in NE 0.5 mph   98% 0.00 in 188 W/m2
11:19 57.7 °F 57.1 °F 30.03 in NE 0.3 mph 1 mph 98% 0.00 in 199 W/m2
11:24 57.9 °F 57.3 °F 30.03 in NE 0.1 mph 1 mph 98% 0.00 in 221 W/m2
11:29 57.9 °F 57.3 °F 30.02 in NE 0.9 mph 1 mph 98% 0.00 in 221 W/m2
11:34 58 °F 57.4 °F 30.02 in NE 1.4 mph 1 mph 98% 0.00 in 225 W/m2
11:39 57.9 °F 57.3 °F 30.02 in Calm   3 mph 98% 0.00 in 141 W/m2
11:44 58 °F 57.4 °F 30.02 in Calm     98% 0.00 in 127 W/m2
11:49 58.1 °F 57.5 °F 30.02 in NE 0.1 mph 0.7 mph 98% 0.00 in 118 W/m2
11:54 58.1 °F 57.5 °F 30.01 in NE 1.2 mph 2 mph 97.8% 0.00 in 197 W/m2
11:59 58 °F 57.2 °F 30.01 in NE 0.3 mph 1 mph 97% 0.00 in 265 W/m2
12:04 58 °F 57.2 °F 30.01 in NE 0.3 mph 1 mph 97% 0.00 in 258 W/m2
12:09 58.2 °F 57.5 °F 30.01 in WNW 2.7 mph 1.9 mph 97.4% 0.00 in 295 W/m2
12:14 58.4 °F 57.8 °F 30.01 in WSW 1.4 mph 4 mph 98% 0.00 in 295 W/m2
12:19 58.4 °F 57.8 °F 30.01 in Calm   3 mph 97.8% 0.00 in 244 W/m2
12:24 58.5 °F 57.7 °F 30.01 in WSW 1.7 mph 3.1 mph 97% 0.00 in 230 W/m2
12:29 58.6 °F 57.8 °F 30.01 in WSW 0.7 mph 0.2 mph 97% 0.00 in 165 W/m2
12:34 58.8 °F 58 °F 30.01 in WSW 0.2 mph 1 mph 97% 0.00 in 165 W/m2
12:39 58.9 °F 58.1 °F 30.00 in WSW 0.3 mph 0.1 mph 97% 0.00 in 163 W/m2
12:44 59.1 °F 58.2 °F 30.00 in WSW 0.7 mph 0.2 mph 97% 0.00 in 156 W/m2
12:49 59 °F 58.2 °F 30.00 in WSW 0.3 mph 1 mph 97% 0.00 in 149 W/m2
12:54 58.8 °F 58 °F 30.00 in WSW 1.1 mph 1.2 mph 97% 0.00 in 163 W/m2
12:59 58.9 °F 58.1 °F 30.00 in WSW 2.6 mph 2.1 mph 97% 0.00 in 174 W/m2
13:04 58.9 °F 58.1 °F 30.00 in WSW 0.3 mph 3 mph 97% 0.00 in 192 W/m2
13:09 59 °F 58.2 °F 30.00 in Calm   1 mph 97% 0.00 in 165 W/m2
13:14 59.1 °F 58.2 °F 29.99 in WSW 0.2 mph 0.1 mph 97% 0.00 in 174 W/m2
13:19 59.2 °F 58.1 °F 29.99 in WSW 0.9 mph 1 mph 96% 0.00 in 174 W/m2
13:24 59.2 °F 58.1 °F 29.99 in WSW 1.8 mph 2 mph 96% 0.00 in 151 W/m2
13:29 59.3 °F 58.2 °F 29.99 in WSW 0.3 mph 3 mph 96% 0.00 in 148 W/m2
13:34 59.5 °F 58.4 °F 29.99 in WSW 2.1 mph 2.4 mph 96% 0.00 in 132 W/m2
13:39 59.4 °F 58.2 °F 29.99 in WSW 0.3 mph 4 mph 95.7% 0.00 in 141 W/m2
13:44 59.4 °F 58.2 °F 29.98 in Calm   1 mph 95.7% 0.00 in 141 W/m2
13:49 59.6 °F 58.3 °F 29.98 in Calm     95.5% 0.00 in 113 W/m2
13:54 59.8 °F 58.5 °F 29.98 in Calm     95.5% 0.00 in 104 W/m2
13:59 59.9 °F 58.5 °F 29.98 in WSW 1 mph 0.3 mph 95% 0.00 in 105 W/m2
14:04 59.8 °F 58.3 °F 29.98 in WSW 2.5 mph 2.2 mph 94.7% 0.00 in 104 W/m2
14:09 59.7 °F 58.2 °F 29.98 in WSW 0.5 mph 3 mph 94.6% 0.00 in 93 W/m2
14:14 59.8 °F 58.2 °F 29.98 in Calm   1 mph 94.5% 0.00 in 88 W/m2
14:19 59.8 °F 58.1 °F 29.98 in Calm     94% 0.00 in 53 W/m2
14:24 59.8 °F 58.1 °F 29.99 in WSW 2 mph 2.4 mph 94% 0.00 in 47 W/m2
14:29 59.7 °F 58 °F 29.99 in WSW 2.7 mph 3 mph 94% 0.00 in 51 W/m2
14:34 59.6 °F 57.9 °F 29.98 in WSW 0.9 mph 3 mph 94% 0.00 in 49 W/m2
14:39 59.6 °F 57.9 °F 29.98 in WSW 2 mph 3.4 mph 94% 0.00 in 76 W/m2
14:44 59.5 °F 57.8 °F 29.98 in SW 2.2 mph 6 mph 94% 0.00 in 74 W/m2
14:49 59.4 °F 57.7 °F 29.98 in SW 2.2 mph 3 mph 94% 0.00 in 54 W/m2
14:54 59.4 °F 57.7 °F 29.98 in SW 2.8 mph 4 mph 94% 0.00 in 49 W/m2
14:59 59.4 °F 57.7 °F 29.98 in SW 0.9 mph 4 mph 94% 0.00 in 47 W/m2
Chesapeake, Virginia, USA
Compliments of Weather Underground - 2.5 mb